sensor_id;sensor_type;location;lat;lon;timestamp;P1;durP1;ratioP1;P2;durP2;ratioP2
44456;SDS011;30159;49.316;8.558;2023-06-26T00:02:25;5.07;;;4.67;;
44456;SDS011;30159;49.316;8.558;2023-06-26T00:04:51;6.20;;;4.97;;
44456;SDS011;30159;49.316;8.558;2023-06-26T00:07:18;5.10;;;4.67;;
44456;SDS011;30159;49.316;8.558;2023-06-26T00:09:45;5.00;;;4.60;;
44456;SDS011;30159;49.316;8.558;2023-06-26T00:12:12;5.00;;;4.60;;
44456;SDS011;30159;49.316;8.558;2023-06-26T00:14:40;5.40;;;5.10;;
44456;SDS011;30159;49.316;8.558;2023-06-26T00:17:06;4.97;;;4.67;;
44456;SDS011;30159;49.316;8.558;2023-06-26T00:19:33;6.00;;;5.43;;
44456;SDS011;30159;49.316;8.558;2023-06-26T00:21:59;5.07;;;4.67;;
44456;SDS011;30159;49.316;8.558;2023-06-26T00:24:26;5.37;;;4.87;;
44456;SDS011;30159;49.316;8.558;2023-06-26T00:26:52;5.33;;;5.00;;
44456;SDS011;30159;49.316;8.558;2023-06-26T00:29:19;5.23;;;4.90;;
44456;SDS011;30159;49.316;8.558;2023-06-26T00:31:47;5.67;;;5.17;;
44456;SDS011;30159;49.316;8.558;2023-06-26T00:34:13;5.10;;;4.80;;
44456;SDS011;30159;49.316;8.558;2023-06-26T00:36:40;4.70;;;4.30;;
44456;SDS011;30159;49.316;8.558;2023-06-26T00:39:08;5.37;;;4.97;;
44456;SDS011;30159;49.316;8.558;2023-06-26T00:41:35;5.17;;;4.87;;
44456;SDS011;30159;49.316;8.558;2023-06-26T00:44:02;6.00;;;5.60;;
44456;SDS011;30159;49.316;8.558;2023-06-26T00:46:29;5.53;;;5.23;;
44456;SDS011;30159;49.316;8.558;2023-06-26T00:48:57;5.73;;;5.20;;
44456;SDS011;30159;49.316;8.558;2023-06-26T00:51:25;5.20;;;4.87;;
44456;SDS011;30159;49.316;8.558;2023-06-26T00:53:52;4.70;;;4.50;;
44456;SDS011;30159;49.316;8.558;2023-06-26T00:56:19;5.10;;;4.80;;
44456;SDS011;30159;49.316;8.558;2023-06-26T00:58:46;5.40;;;4.90;;
44456;SDS011;30159;49.316;8.558;2023-06-26T01:01:13;5.57;;;5.07;;
44456;SDS011;30159;49.316;8.558;2023-06-26T01:03:42;6.20;;;5.73;;
44456;SDS011;30159;49.316;8.558;2023-06-26T01:06:11;5.27;;;4.97;;
44456;SDS011;30159;49.316;8.558;2023-06-26T01:08:39;5.47;;;5.17;;
44456;SDS011;30159;49.316;8.558;2023-06-26T01:11:07;5.20;;;4.90;;
44456;SDS011;30159;49.316;8.558;2023-06-26T01:13:34;5.80;;;5.40;;
44456;SDS011;30159;49.316;8.558;2023-06-26T01:16:02;5.07;;;4.77;;
44456;SDS011;30159;49.316;8.558;2023-06-26T01:18:30;5.90;;;5.50;;
44456;SDS011;30159;49.316;8.558;2023-06-26T01:20:58;5.67;;;5.37;;
44456;SDS011;30159;49.316;8.558;2023-06-26T01:23:29;6.00;;;5.50;;
44456;SDS011;30159;49.316;8.558;2023-06-26T01:26:12;5.47;;;5.07;;
44456;SDS011;30159;49.316;8.558;2023-06-26T01:28:43;6.10;;;5.73;;
44456;SDS011;30159;49.316;8.558;2023-06-26T01:31:10;6.20;;;5.37;;
44456;SDS011;30159;49.316;8.558;2023-06-26T01:33:38;4.83;;;4.63;;
44456;SDS011;30159;49.316;8.558;2023-06-26T01:36:06;9.40;;;5.30;;
44456;SDS011;30159;49.316;8.558;2023-06-26T01:38:33;6.00;;;5.50;;
44456;SDS011;30159;49.316;8.558;2023-06-26T01:41:00;6.23;;;5.67;;
44456;SDS011;30159;49.316;8.558;2023-06-26T01:43:37;6.03;;;5.63;;
44456;SDS011;30159;49.316;8.558;2023-06-26T01:46:23;5.53;;;5.00;;
44456;SDS011;30159;49.316;8.558;2023-06-26T01:48:53;5.47;;;5.10;;
44456;SDS011;30159;49.316;8.558;2023-06-26T01:51:24;5.63;;;5.33;;
44456;SDS011;30159;49.316;8.558;2023-06-26T01:53:56;6.20;;;5.70;;
44456;SDS011;30159;49.316;8.558;2023-06-26T01:56:25;4.40;;;4.20;;
44456;SDS011;30159;49.316;8.558;2023-06-26T01:58:55;5.50;;;5.20;;
44456;SDS011;30159;49.316;8.558;2023-06-26T02:01:23;4.87;;;4.57;;
44456;SDS011;30159;49.316;8.558;2023-06-26T02:03:50;5.90;;;5.50;;
44456;SDS011;30159;49.316;8.558;2023-06-26T02:06:16;5.20;;;4.90;;
44456;SDS011;30159;49.316;8.558;2023-06-26T02:08:43;5.23;;;4.80;;
44456;SDS011;30159;49.316;8.558;2023-06-26T02:11:09;4.80;;;4.50;;
44456;SDS011;30159;49.316;8.558;2023-06-26T02:13:36;5.20;;;4.80;;
44456;SDS011;30159;49.316;8.558;2023-06-26T02:16:04;4.80;;;4.50;;
44456;SDS011;30159;49.316;8.558;2023-06-26T02:18:30;4.80;;;4.50;;
44456;SDS011;30159;49.316;8.558;2023-06-26T02:20:56;5.43;;;5.03;;
44456;SDS011;30159;49.316;8.558;2023-06-26T02:23:23;5.47;;;5.10;;
44456;SDS011;30159;49.316;8.558;2023-06-26T02:25:52;7.70;;;5.17;;
44456;SDS011;30159;49.316;8.558;2023-06-26T02:28:18;4.97;;;4.67;;
44456;SDS011;30159;49.316;8.558;2023-06-26T02:30:45;5.50;;;5.20;;
44456;SDS011;30159;49.316;8.558;2023-06-26T02:33:13;4.90;;;4.57;;
44456;SDS011;30159;49.316;8.558;2023-06-26T02:35:39;5.23;;;4.93;;
44456;SDS011;30159;49.316;8.558;2023-06-26T02:38:06;5.63;;;5.17;;
44456;SDS011;30159;49.316;8.558;2023-06-26T02:40:33;5.27;;;4.97;;
44456;SDS011;30159;49.316;8.558;2023-06-26T02:42:59;5.50;;;5.20;;
44456;SDS011;30159;49.316;8.558;2023-06-26T02:45:26;5.40;;;5.10;;
44456;SDS011;30159;49.316;8.558;2023-06-26T02:47:52;4.80;;;4.50;;
44456;SDS011;30159;49.316;8.558;2023-06-26T02:50:20;5.37;;;5.07;;
44456;SDS011;30159;49.316;8.558;2023-06-26T02:52:47;5.20;;;4.80;;
44456;SDS011;30159;49.316;8.558;2023-06-26T02:55:17;5.53;;;5.23;;
44456;SDS011;30159;49.316;8.558;2023-06-26T02:57:44;6.27;;;5.83;;
44456;SDS011;30159;49.316;8.558;2023-06-26T03:00:11;6.27;;;5.87;;
44456;SDS011;30159;49.316;8.558;2023-06-26T03:02:39;5.83;;;5.43;;
44456;SDS011;30159;49.316;8.558;2023-06-26T03:05:05;5.40;;;5.10;;
44456;SDS011;30159;49.316;8.558;2023-06-26T03:07:33;5.77;;;5.37;;
44456;SDS011;30159;49.316;8.558;2023-06-26T03:10:00;5.90;;;5.60;;
44456;SDS011;30159;49.316;8.558;2023-06-26T03:12:26;6.60;;;6.10;;
44456;SDS011;30159;49.316;8.558;2023-06-26T03:14:53;5.80;;;5.30;;
44456;SDS011;30159;49.316;8.558;2023-06-26T03:17:19;5.80;;;5.40;;
44456;SDS011;30159;49.316;8.558;2023-06-26T03:19:46;6.33;;;5.23;;
44456;SDS011;30159;49.316;8.558;2023-06-26T03:22:12;6.20;;;5.80;;
44456;SDS011;30159;49.316;8.558;2023-06-26T03:24:40;7.03;;;6.40;;
44456;SDS011;30159;49.316;8.558;2023-06-26T03:27:07;5.77;;;5.10;;
44456;SDS011;30159;49.316;8.558;2023-06-26T03:29:34;5.93;;;5.53;;
44456;SDS011;30159;49.316;8.558;2023-06-26T03:32:01;6.50;;;6.00;;
44456;SDS011;30159;49.316;8.558;2023-06-26T03:34:28;6.40;;;5.80;;
44456;SDS011;30159;49.316;8.558;2023-06-26T03:36:54;5.90;;;5.47;;
44456;SDS011;30159;49.316;8.558;2023-06-26T03:39:20;6.43;;;5.80;;
44456;SDS011;30159;49.316;8.558;2023-06-26T03:41:48;6.27;;;5.70;;
44456;SDS011;30159;49.316;8.558;2023-06-26T03:44:15;6.17;;;5.77;;
44456;SDS011;30159;49.316;8.558;2023-06-26T03:46:41;5.17;;;4.87;;
44456;SDS011;30159;49.316;8.558;2023-06-26T03:49:08;6.07;;;5.57;;
44456;SDS011;30159;49.316;8.558;2023-06-26T03:51:35;6.27;;;5.77;;
44456;SDS011;30159;49.316;8.558;2023-06-26T03:54:02;8.00;;;5.70;;
44456;SDS011;30159;49.316;8.558;2023-06-26T03:56:29;5.53;;;5.17;;
44456;SDS011;30159;49.316;8.558;2023-06-26T03:58:57;6.90;;;6.30;;
44456;SDS011;30159;49.316;8.558;2023-06-26T04:01:23;6.73;;;6.13;;
44456;SDS011;30159;49.316;8.558;2023-06-26T04:03:50;5.40;;;5.10;;
44456;SDS011;30159;49.316;8.558;2023-06-26T04:06:17;5.93;;;5.50;;
44456;SDS011;30159;49.316;8.558;2023-06-26T04:08:43;6.27;;;5.63;;
44456;SDS011;30159;49.316;8.558;2023-06-26T04:11:10;7.80;;;6.37;;
44456;SDS011;30159;49.316;8.558;2023-06-26T04:13:36;7.07;;;6.57;;
44456;SDS011;30159;49.316;8.558;2023-06-26T04:16:04;7.00;;;6.50;;
44456;SDS011;30159;49.316;8.558;2023-06-26T04:18:31;7.40;;;6.90;;
44456;SDS011;30159;49.316;8.558;2023-06-26T04:21:04;6.07;;;5.70;;
44456;SDS011;30159;49.316;8.558;2023-06-26T04:23:33;6.80;;;6.20;;
44456;SDS011;30159;49.316;8.558;2023-06-26T04:25:59;7.53;;;6.10;;
44456;SDS011;30159;49.316;8.558;2023-06-26T04:28:27;6.17;;;5.67;;
44456;SDS011;30159;49.316;8.558;2023-06-26T04:30:54;6.83;;;6.30;;
44456;SDS011;30159;49.316;8.558;2023-06-26T04:33:22;6.93;;;6.43;;
44456;SDS011;30159;49.316;8.558;2023-06-26T04:35:48;5.97;;;5.57;;
44456;SDS011;30159;49.316;8.558;2023-06-26T04:38:15;6.20;;;5.70;;
44456;SDS011;30159;49.316;8.558;2023-06-26T04:40:41;6.97;;;6.57;;
44456;SDS011;30159;49.316;8.558;2023-06-26T04:43:08;6.87;;;6.47;;
44456;SDS011;30159;49.316;8.558;2023-06-26T04:45:35;6.10;;;5.60;;
44456;SDS011;30159;49.316;8.558;2023-06-26T04:48:01;6.53;;;5.93;;
44456;SDS011;30159;49.316;8.558;2023-06-26T04:50:29;5.53;;;5.23;;
44456;SDS011;30159;49.316;8.558;2023-06-26T04:52:56;6.30;;;5.80;;
44456;SDS011;30159;49.316;8.558;2023-06-26T04:55:23;7.03;;;6.03;;
44456;SDS011;30159;49.316;8.558;2023-06-26T04:57:50;6.20;;;5.80;;
44456;SDS011;30159;49.316;8.558;2023-06-26T05:00:17;7.17;;;6.13;;
44456;SDS011;30159;49.316;8.558;2023-06-26T05:02:44;6.17;;;5.57;;
44456;SDS011;30159;49.316;8.558;2023-06-26T05:05:11;7.43;;;6.13;;
44456;SDS011;30159;49.316;8.558;2023-06-26T05:07:40;6.70;;;6.20;;
44456;SDS011;30159;49.316;8.558;2023-06-26T05:10:07;5.87;;;5.30;;
44456;SDS011;30159;49.316;8.558;2023-06-26T05:12:34;6.97;;;6.33;;
44456;SDS011;30159;49.316;8.558;2023-06-26T05:15:01;6.83;;;6.33;;
44456;SDS011;30159;49.316;8.558;2023-06-26T05:17:28;6.70;;;6.20;;
44456;SDS011;30159;49.316;8.558;2023-06-26T05:19:54;6.67;;;6.20;;
44456;SDS011;30159;49.316;8.558;2023-06-26T05:22:21;7.37;;;5.53;;
44456;SDS011;30159;49.316;8.558;2023-06-26T05:24:50;7.10;;;6.60;;
44456;SDS011;30159;49.316;8.558;2023-06-26T05:27:21;7.13;;;6.60;;
44456;SDS011;30159;49.316;8.558;2023-06-26T05:29:48;7.50;;;6.40;;
44456;SDS011;30159;49.316;8.558;2023-06-26T05:32:15;6.87;;;6.37;;
44456;SDS011;30159;49.316;8.558;2023-06-26T05:34:43;8.80;;;6.13;;
44456;SDS011;30159;49.316;8.558;2023-06-26T05:37:13;6.13;;;5.63;;
44456;SDS011;30159;49.316;8.558;2023-06-26T05:39:42;6.00;;;5.70;;
44456;SDS011;30159;49.316;8.558;2023-06-26T05:42:12;6.50;;;5.90;;
44456;SDS011;30159;49.316;8.558;2023-06-26T05:44:39;6.33;;;5.90;;
44456;SDS011;30159;49.316;8.558;2023-06-26T05:47:06;6.60;;;6.10;;
44456;SDS011;30159;49.316;8.558;2023-06-26T05:49:33;6.33;;;6.03;;
44456;SDS011;30159;49.316;8.558;2023-06-26T05:51:59;6.73;;;6.13;;
44456;SDS011;30159;49.316;8.558;2023-06-26T05:54:26;5.90;;;5.60;;
44456;SDS011;30159;49.316;8.558;2023-06-26T05:56:55;6.70;;;6.30;;
44456;SDS011;30159;49.316;8.558;2023-06-26T05:59:25;7.60;;;7.10;;
44456;SDS011;30159;49.316;8.558;2023-06-26T06:01:52;6.50;;;6.07;;
44456;SDS011;30159;49.316;8.558;2023-06-26T06:04:19;6.20;;;5.80;;
44456;SDS011;30159;49.316;8.558;2023-06-26T06:06:46;5.83;;;5.53;;
44456;SDS011;30159;49.316;8.558;2023-06-26T06:09:12;6.73;;;6.10;;
44456;SDS011;30159;49.316;8.558;2023-06-26T06:11:39;6.20;;;5.90;;
44456;SDS011;30159;49.316;8.558;2023-06-26T06:14:05;6.33;;;5.87;;
44456;SDS011;30159;49.316;8.558;2023-06-26T06:16:33;6.27;;;5.80;;
44456;SDS011;30159;49.316;8.558;2023-06-26T06:19:00;6.33;;;6.03;;
44456;SDS011;30159;49.316;8.558;2023-06-26T06:21:28;5.90;;;5.70;;
44456;SDS011;30159;49.316;8.558;2023-06-26T06:23:54;6.70;;;6.40;;
44456;SDS011;30159;49.316;8.558;2023-06-26T06:26:21;5.50;;;5.20;;
44456;SDS011;30159;49.316;8.558;2023-06-26T06:28:48;5.83;;;5.57;;
44456;SDS011;30159;49.316;8.558;2023-06-26T06:31:14;6.10;;;5.90;;
44456;SDS011;30159;49.316;8.558;2023-06-26T06:33:42;6.13;;;5.80;;
44456;SDS011;30159;49.316;8.558;2023-06-26T06:36:08;5.70;;;5.50;;
44456;SDS011;30159;49.316;8.558;2023-06-26T06:38:35;6.60;;;6.20;;
44456;SDS011;30159;49.316;8.558;2023-06-26T06:41:01;6.80;;;6.40;;
44456;SDS011;30159;49.316;8.558;2023-06-26T06:43:28;5.67;;;5.27;;
44456;SDS011;30159;49.316;8.558;2023-06-26T06:45:54;6.30;;;5.80;;
44456;SDS011;30159;49.316;8.558;2023-06-26T06:48:21;5.80;;;5.30;;
44456;SDS011;30159;49.316;8.558;2023-06-26T06:50:49;6.30;;;6.00;;
44456;SDS011;30159;49.316;8.558;2023-06-26T06:53:15;5.70;;;5.50;;
44456;SDS011;30159;49.316;8.558;2023-06-26T06:55:42;5.13;;;4.83;;
44456;SDS011;30159;49.316;8.558;2023-06-26T06:58:09;6.10;;;5.53;;
44456;SDS011;30159;49.316;8.558;2023-06-26T07:00:35;6.53;;;5.33;;
44456;SDS011;30159;49.316;8.558;2023-06-26T07:03:02;6.07;;;5.67;;
44456;SDS011;30159;49.316;8.558;2023-06-26T07:05:29;6.53;;;5.67;;
44456;SDS011;30159;49.316;8.558;2023-06-26T07:07:56;5.97;;;5.67;;
44456;SDS011;30159;49.316;8.558;2023-06-26T07:10:23;5.93;;;5.63;;
44456;SDS011;30159;49.316;8.558;2023-06-26T07:12:49;5.87;;;5.57;;
44456;SDS011;30159;49.316;8.558;2023-06-26T07:15:16;6.40;;;6.00;;
44456;SDS011;30159;49.316;8.558;2023-06-26T07:17:43;5.73;;;5.33;;
44456;SDS011;30159;49.316;8.558;2023-06-26T07:20:09;5.50;;;5.20;;
44456;SDS011;30159;49.316;8.558;2023-06-26T07:22:40;6.23;;;5.93;;
44456;SDS011;30159;49.316;8.558;2023-06-26T07:25:09;5.07;;;4.70;;
44456;SDS011;30159;49.316;8.558;2023-06-26T07:27:35;5.50;;;5.30;;
44456;SDS011;30159;49.316;8.558;2023-06-26T07:30:02;5.50;;;5.20;;
44456;SDS011;30159;49.316;8.558;2023-06-26T07:32:29;5.20;;;5.00;;
44456;SDS011;30159;49.316;8.558;2023-06-26T07:34:55;6.27;;;5.87;;
44456;SDS011;30159;49.316;8.558;2023-06-26T07:37:22;5.53;;;5.33;;
44456;SDS011;30159;49.316;8.558;2023-06-26T07:39:49;5.80;;;5.60;;
44456;SDS011;30159;49.316;8.558;2023-06-26T07:42:17;5.30;;;5.00;;
44456;SDS011;30159;49.316;8.558;2023-06-26T07:44:44;5.50;;;5.30;;
44456;SDS011;30159;49.316;8.558;2023-06-26T07:47:10;4.80;;;4.60;;
44456;SDS011;30159;49.316;8.558;2023-06-26T07:49:37;4.37;;;4.17;;
44456;SDS011;30159;49.316;8.558;2023-06-26T07:52:05;5.50;;;4.53;;
44456;SDS011;30159;49.316;8.558;2023-06-26T07:54:32;4.90;;;4.60;;
44456;SDS011;30159;49.316;8.558;2023-06-26T07:56:59;5.30;;;5.10;;
44456;SDS011;30159;49.316;8.558;2023-06-26T07:59:29;5.50;;;5.20;;
44456;SDS011;30159;49.316;8.558;2023-06-26T08:01:56;5.37;;;5.07;;
44456;SDS011;30159;49.316;8.558;2023-06-26T08:04:24;4.83;;;4.63;;
44456;SDS011;30159;49.316;8.558;2023-06-26T08:06:52;5.83;;;5.07;;
44456;SDS011;30159;49.316;8.558;2023-06-26T08:09:20;5.97;;;5.63;;
44456;SDS011;30159;49.316;8.558;2023-06-26T08:11:48;5.73;;;5.43;;
44456;SDS011;30159;49.316;8.558;2023-06-26T08:14:15;6.83;;;4.90;;
44456;SDS011;30159;49.316;8.558;2023-06-26T08:16:43;5.40;;;5.20;;
44456;SDS011;30159;49.316;8.558;2023-06-26T08:19:10;5.00;;;4.70;;
44456;SDS011;30159;49.316;8.558;2023-06-26T08:21:37;5.47;;;5.23;;
44456;SDS011;30159;49.316;8.558;2023-06-26T08:24:04;5.20;;;4.90;;
44456;SDS011;30159;49.316;8.558;2023-06-26T08:26:31;5.80;;;5.50;;
44456;SDS011;30159;49.316;8.558;2023-06-26T08:28:58;5.83;;;5.53;;
44456;SDS011;30159;49.316;8.558;2023-06-26T08:31:24;5.57;;;5.17;;
44456;SDS011;30159;49.316;8.558;2023-06-26T08:33:52;5.50;;;5.00;;
44456;SDS011;30159;49.316;8.558;2023-06-26T08:36:18;5.70;;;5.30;;
44456;SDS011;30159;49.316;8.558;2023-06-26T08:38:45;6.73;;;6.23;;
44456;SDS011;30159;49.316;8.558;2023-06-26T08:41:11;6.00;;;5.40;;
44456;SDS011;30159;49.316;8.558;2023-06-26T08:43:38;6.17;;;5.63;;
44456;SDS011;30159;49.316;8.558;2023-06-26T08:46:04;7.23;;;6.67;;
44456;SDS011;30159;49.316;8.558;2023-06-26T08:48:32;5.50;;;5.20;;
44456;SDS011;30159;49.316;8.558;2023-06-26T08:51:01;5.83;;;5.43;;
44456;SDS011;30159;49.316;8.558;2023-06-26T08:53:37;6.07;;;5.77;;
44456;SDS011;30159;49.316;8.558;2023-06-26T08:56:09;7.00;;;6.60;;
44456;SDS011;30159;49.316;8.558;2023-06-26T08:58:39;5.13;;;4.93;;
44456;SDS011;30159;49.316;8.558;2023-06-26T09:01:05;6.03;;;5.63;;
44456;SDS011;30159;49.316;8.558;2023-06-26T09:03:35;6.03;;;5.63;;
44456;SDS011;30159;49.316;8.558;2023-06-26T09:06:03;4.93;;;4.73;;
44456;SDS011;30159;49.316;8.558;2023-06-26T09:08:30;6.10;;;5.80;;
44456;SDS011;30159;49.316;8.558;2023-06-26T09:10:58;6.00;;;5.70;;
44456;SDS011;30159;49.316;8.558;2023-06-26T09:13:25;6.07;;;5.60;;
44456;SDS011;30159;49.316;8.558;2023-06-26T09:15:52;5.60;;;5.27;;
44456;SDS011;30159;49.316;8.558;2023-06-26T09:18:20;7.57;;;5.30;;
44456;SDS011;30159;49.316;8.558;2023-06-26T09:20:47;5.13;;;4.73;;
44456;SDS011;30159;49.316;8.558;2023-06-26T09:23:15;4.97;;;4.77;;
44456;SDS011;30159;49.316;8.558;2023-06-26T09:25:42;5.73;;;5.43;;
44456;SDS011;30159;49.316;8.558;2023-06-26T09:28:09;5.70;;;5.30;;
44456;SDS011;30159;49.316;8.558;2023-06-26T09:30:36;4.80;;;4.60;;
44456;SDS011;30159;49.316;8.558;2023-06-26T09:33:12;5.20;;;4.90;;
44456;SDS011;30159;49.316;8.558;2023-06-26T09:35:40;5.63;;;5.33;;
44456;SDS011;30159;49.316;8.558;2023-06-26T09:38:07;8.43;;;4.83;;
44456;SDS011;30159;49.316;8.558;2023-06-26T09:40:35;5.20;;;4.70;;
44456;SDS011;30159;49.316;8.558;2023-06-26T09:43:03;5.50;;;5.13;;
44456;SDS011;30159;49.316;8.558;2023-06-26T09:45:30;5.07;;;4.77;;
44456;SDS011;30159;49.316;8.558;2023-06-26T09:47:59;4.80;;;4.60;;
44456;SDS011;30159;49.316;8.558;2023-06-26T09:50:26;5.60;;;5.30;;
44456;SDS011;30159;49.316;8.558;2023-06-26T09:52:53;5.30;;;5.00;;
44456;SDS011;30159;49.316;8.558;2023-06-26T09:55:19;5.83;;;4.93;;
44456;SDS011;30159;49.316;8.558;2023-06-26T09:57:49;5.10;;;4.60;;
44456;SDS011;30159;49.316;8.558;2023-06-26T10:00:16;4.60;;;4.40;;
44456;SDS011;30159;49.316;8.558;2023-06-26T10:02:42;5.70;;;5.30;;
44456;SDS011;30159;49.316;8.558;2023-06-26T10:05:09;5.10;;;4.90;;
44456;SDS011;30159;49.316;8.558;2023-06-26T10:07:37;4.23;;;4.03;;
44456;SDS011;30159;49.316;8.558;2023-06-26T10:10:05;5.53;;;5.20;;
44456;SDS011;30159;49.316;8.558;2023-06-26T10:12:33;4.90;;;4.50;;
44456;SDS011;30159;49.316;8.558;2023-06-26T10:15:02;5.73;;;5.33;;
44456;SDS011;30159;49.316;8.558;2023-06-26T10:17:30;5.00;;;4.80;;
44456;SDS011;30159;49.316;8.558;2023-06-26T10:20:01;5.67;;;5.37;;
44456;SDS011;30159;49.316;8.558;2023-06-26T10:22:29;6.00;;;5.50;;
44456;SDS011;30159;49.316;8.558;2023-06-26T10:25:03;5.30;;;5.00;;
44456;SDS011;30159;49.316;8.558;2023-06-26T10:27:34;4.70;;;4.50;;
44456;SDS011;30159;49.316;8.558;2023-06-26T10:30:06;5.17;;;4.77;;
44456;SDS011;30159;49.316;8.558;2023-06-26T10:32:38;4.97;;;4.63;;
44456;SDS011;30159;49.316;8.558;2023-06-26T10:35:06;6.23;;;5.07;;
44456;SDS011;30159;49.316;8.558;2023-06-26T10:37:42;5.50;;;5.20;;
44456;SDS011;30159;49.316;8.558;2023-06-26T10:40:10;5.40;;;5.00;;
44456;SDS011;30159;49.316;8.558;2023-06-26T10:42:38;5.37;;;5.17;;
44456;SDS011;30159;49.316;8.558;2023-06-26T10:45:10;5.50;;;5.20;;
44456;SDS011;30159;49.316;8.558;2023-06-26T10:47:39;5.57;;;5.20;;
44456;SDS011;30159;49.316;8.558;2023-06-26T10:50:16;5.80;;;5.30;;
44456;SDS011;30159;49.316;8.558;2023-06-26T10:53:06;5.47;;;4.97;;
44456;SDS011;30159;49.316;8.558;2023-06-26T10:55:34;5.70;;;5.50;;
44456;SDS011;30159;49.316;8.558;2023-06-26T10:58:01;4.83;;;4.63;;
44456;SDS011;30159;49.316;8.558;2023-06-26T11:00:30;5.80;;;5.50;;
44456;SDS011;30159;49.316;8.558;2023-06-26T11:02:57;6.37;;;6.07;;
44456;SDS011;30159;49.316;8.558;2023-06-26T11:05:26;5.17;;;4.83;;
44456;SDS011;30159;49.316;8.558;2023-06-26T11:08:03;5.20;;;4.80;;
44456;SDS011;30159;49.316;8.558;2023-06-26T11:13:16;5.90;;;5.50;;
44456;SDS011;30159;49.316;8.558;2023-06-26T11:15:46;6.43;;;5.80;;
44456;SDS011;30159;49.316;8.558;2023-06-26T11:18:13;5.70;;;5.30;;
44456;SDS011;30159;49.316;8.558;2023-06-26T11:20:39;5.67;;;5.40;;
44456;SDS011;30159;49.316;8.558;2023-06-26T11:23:06;5.87;;;5.67;;
44456;SDS011;30159;49.316;8.558;2023-06-26T11:25:34;5.77;;;5.47;;
44456;SDS011;30159;49.316;8.558;2023-06-26T11:28:02;6.80;;;6.20;;
44456;SDS011;30159;49.316;8.558;2023-06-26T11:30:29;4.83;;;4.57;;
44456;SDS011;30159;49.316;8.558;2023-06-26T11:33:03;5.73;;;5.43;;
44456;SDS011;30159;49.316;8.558;2023-06-26T11:35:31;5.43;;;4.90;;
44456;SDS011;30159;49.316;8.558;2023-06-26T11:37:58;5.70;;;4.90;;
44456;SDS011;30159;49.316;8.558;2023-06-26T11:40:29;5.50;;;5.00;;
44456;SDS011;30159;49.316;8.558;2023-06-26T11:42:57;5.60;;;5.20;;
44456;SDS011;30159;49.316;8.558;2023-06-26T11:45:24;5.43;;;5.03;;
44456;SDS011;30159;49.316;8.558;2023-06-26T11:47:51;6.43;;;5.93;;
44456;SDS011;30159;49.316;8.558;2023-06-26T11:50:19;6.03;;;5.73;;
44456;SDS011;30159;49.316;8.558;2023-06-26T11:52:46;5.23;;;4.93;;
44456;SDS011;30159;49.316;8.558;2023-06-26T11:55:19;4.80;;;4.60;;
44456;SDS011;30159;49.316;8.558;2023-06-26T11:57:47;4.83;;;4.63;;
44456;SDS011;30159;49.316;8.558;2023-06-26T12:00:14;5.23;;;4.73;;
44456;SDS011;30159;49.316;8.558;2023-06-26T12:02:42;4.97;;;4.67;;
44456;SDS011;30159;49.316;8.558;2023-06-26T12:05:09;5.27;;;4.77;;
44456;SDS011;30159;49.316;8.558;2023-06-26T12:07:37;4.33;;;4.13;;
44456;SDS011;30159;49.316;8.558;2023-06-26T12:10:04;5.00;;;4.70;;
44456;SDS011;30159;49.316;8.558;2023-06-26T12:12:32;4.50;;;4.00;;
44456;SDS011;30159;49.316;8.558;2023-06-26T12:14:59;4.20;;;4.00;;
44456;SDS011;30159;49.316;8.558;2023-06-26T12:17:26;4.23;;;3.93;;
44456;SDS011;30159;49.316;8.558;2023-06-26T12:19:53;3.40;;;3.20;;
44456;SDS011;30159;49.316;8.558;2023-06-26T12:22:19;4.00;;;3.70;;
44456;SDS011;30159;49.316;8.558;2023-06-26T12:24:47;3.47;;;3.27;;
44456;SDS011;30159;49.316;8.558;2023-06-26T12:27:15;3.30;;;2.90;;
44456;SDS011;30159;49.316;8.558;2023-06-26T12:29:45;3.33;;;3.03;;
44456;SDS011;30159;49.316;8.558;2023-06-26T12:32:16;3.20;;;3.00;;
44456;SDS011;30159;49.316;8.558;2023-06-26T12:34:46;3.80;;;3.47;;
44456;SDS011;30159;49.316;8.558;2023-06-26T12:37:15;4.13;;;3.30;;
44456;SDS011;30159;49.316;8.558;2023-06-26T12:39:45;3.23;;;3.03;;
44456;SDS011;30159;49.316;8.558;2023-06-26T12:42:14;3.57;;;3.27;;
44456;SDS011;30159;49.316;8.558;2023-06-26T12:44:42;3.63;;;2.40;;
44456;SDS011;30159;49.316;8.558;2023-06-26T12:47:09;2.80;;;2.60;;
44456;SDS011;30159;49.316;8.558;2023-06-26T12:49:38;3.77;;;2.90;;
44456;SDS011;30159;49.316;8.558;2023-06-26T12:52:06;3.10;;;2.90;;
44456;SDS011;30159;49.316;8.558;2023-06-26T12:54:34;2.93;;;2.73;;
44456;SDS011;30159;49.316;8.558;2023-06-26T12:57:01;3.33;;;3.03;;
44456;SDS011;30159;49.316;8.558;2023-06-26T12:59:30;3.10;;;2.90;;
44456;SDS011;30159;49.316;8.558;2023-06-26T13:01:57;3.10;;;2.90;;
44456;SDS011;30159;49.316;8.558;2023-06-26T13:04:23;2.90;;;2.70;;
44456;SDS011;30159;49.316;8.558;2023-06-26T13:06:50;3.07;;;2.87;;
44456;SDS011;30159;49.316;8.558;2023-06-26T13:09:17;3.93;;;3.53;;
44456;SDS011;30159;49.316;8.558;2023-06-26T13:11:43;3.10;;;2.90;;
44456;SDS011;30159;49.316;8.558;2023-06-26T13:14:10;3.43;;;3.23;;
44456;SDS011;30159;49.316;8.558;2023-06-26T13:16:38;4.03;;;3.57;;
44456;SDS011;30159;49.316;8.558;2023-06-26T13:19:04;3.53;;;3.23;;
44456;SDS011;30159;49.316;8.558;2023-06-26T13:21:31;5.00;;;4.50;;
44456;SDS011;30159;49.316;8.558;2023-06-26T13:23:58;3.70;;;3.30;;
44456;SDS011;30159;49.316;8.558;2023-06-26T13:26:25;3.90;;;3.60;;
44456;SDS011;30159;49.316;8.558;2023-06-26T13:28:54;3.57;;;3.37;;
44456;SDS011;30159;49.316;8.558;2023-06-26T13:31:20;4.80;;;4.50;;
44456;SDS011;30159;49.316;8.558;2023-06-26T13:33:48;5.03;;;4.00;;
44456;SDS011;30159;49.316;8.558;2023-06-26T13:36:16;4.87;;;4.57;;
44456;SDS011;30159;49.316;8.558;2023-06-26T13:38:42;4.03;;;3.83;;
44456;SDS011;30159;49.316;8.558;2023-06-26T13:41:09;4.50;;;4.20;;
44456;SDS011;30159;49.316;8.558;2023-06-26T13:43:35;5.63;;;4.60;;
44456;SDS011;30159;49.316;8.558;2023-06-26T13:46:02;5.03;;;4.70;;
44456;SDS011;30159;49.316;8.558;2023-06-26T13:48:29;5.00;;;4.70;;
44456;SDS011;30159;49.316;8.558;2023-06-26T13:50:58;5.70;;;5.30;;
44456;SDS011;30159;49.316;8.558;2023-06-26T13:53:25;5.00;;;4.70;;
44456;SDS011;30159;49.316;8.558;2023-06-26T13:55:51;5.60;;;5.20;;
44456;SDS011;30159;49.316;8.558;2023-06-26T13:58:18;6.07;;;5.77;;
44456;SDS011;30159;49.316;8.558;2023-06-26T14:00:47;5.93;;;5.53;;
44456;SDS011;30159;49.316;8.558;2023-06-26T14:03:14;5.80;;;5.40;;
44456;SDS011;30159;49.316;8.558;2023-06-26T14:05:40;5.47;;;5.17;;
44456;SDS011;30159;49.316;8.558;2023-06-26T14:08:08;5.03;;;4.63;;
44456;SDS011;30159;49.316;8.558;2023-06-26T14:10:35;5.00;;;4.70;;
44456;SDS011;30159;49.316;8.558;2023-06-26T14:13:03;5.40;;;5.10;;
44456;SDS011;30159;49.316;8.558;2023-06-26T14:15:29;6.53;;;4.73;;
44456;SDS011;30159;49.316;8.558;2023-06-26T14:17:56;4.73;;;4.03;;
44456;SDS011;30159;49.316;8.558;2023-06-26T14:20:23;5.50;;;4.80;;
44456;SDS011;30159;49.316;8.558;2023-06-26T14:22:49;4.60;;;4.30;;
44456;SDS011;30159;49.316;8.558;2023-06-26T14:25:17;4.70;;;3.63;;
44456;SDS011;30159;49.316;8.558;2023-06-26T14:27:44;4.30;;;3.43;;
44456;SDS011;30159;49.316;8.558;2023-06-26T14:30:11;3.40;;;3.20;;
44456;SDS011;30159;49.316;8.558;2023-06-26T14:32:38;3.47;;;3.13;;
44456;SDS011;30159;49.316;8.558;2023-06-26T14:35:04;3.77;;;2.90;;
44456;SDS011;30159;49.316;8.558;2023-06-26T14:37:31;2.00;;;1.90;;
44456;SDS011;30159;49.316;8.558;2023-06-26T14:39:58;2.40;;;2.00;;
44456;SDS011;30159;49.316;8.558;2023-06-26T14:42:26;3.20;;;1.53;;
44456;SDS011;30159;49.316;8.558;2023-06-26T14:44:52;2.07;;;1.97;;
44456;SDS011;30159;49.316;8.558;2023-06-26T14:47:19;2.90;;;1.53;;
44456;SDS011;30159;49.316;8.558;2023-06-26T14:49:46;1.70;;;1.60;;
44456;SDS011;30159;49.316;8.558;2023-06-26T14:52:12;1.30;;;1.20;;
44456;SDS011;30159;49.316;8.558;2023-06-26T14:54:39;1.40;;;1.30;;